Time;durP1;ratioP1;P1;durP2;ratioP2;P2;SDS_P1;SDS_P2;PMS_P1;PMS_P2;Temp;Humidity;BMP_temperature;BMP_pressure;BME280_temperature;BME280_humidity;BME280_pressure;Samples;Min_cycle;Max_cycle;Signal;HPM_P1;HPM_P2
2023/01/06 00:01:30;;;;;;;9.52;2.38;;;;;;;10.17;97.48;100166.91;4994001;28;20099;-92
2023/01/06 00:03:59;;;;;;;11.65;3.22;;;;;;;10.15;96.76;100164.44;4992724;28;20109;-91
2023/01/06 00:06:26;;;;;;;5.47;2.30;;;;;;;10.27;96.42;100166.25;4991358;28;20106;-92
2023/01/06 00:08:54;;;;;;;7.95;1.98;;;;;;;10.15;95.97;100152.72;4992840;28;20134;-92
2023/01/06 00:11:19;;;;;;;18.67;5.57;;;;;;;10.20;96.00;100160.13;4992872;28;20026;-92
2023/01/06 00:13:45;;;;;;;10.05;3.00;;;;;;;10.25;95.63;100157.50;4991918;28;20369;-91
2023/01/06 00:16:14;;;;;;;9.43;3.75;;;;;;;10.28;96.00;100146.91;4991744;28;20117;-91
2023/01/06 00:18:39;;;;;;;7.60;2.00;;;;;;;10.22;95.41;100156.09;4984896;28;20152;-92
2023/01/06 00:21:05;;;;;;;9.55;3.97;;;;;;;10.21;95.98;100156.34;4992536;28;20121;-92
2023/01/06 00:23:32;;;;;;;3.88;1.98;;;;;;;10.18;95.71;100152.22;4992739;28;20108;-91
2023/01/06 00:25:57;;;;;;;4.95;1.77;;;;;;;10.11;96.62;100146.94;4990998;28;20038;-92
2023/01/06 00:28:22;;;;;;;4.50;2.23;;;;;;;10.14;96.89;100146.47;4992102;28;20030;-90
2023/01/06 00:30:48;;;;;;;6.53;2.00;;;;;;;10.26;96.50;100148.22;4992608;28;20765;-90
2023/01/06 00:33:13;;;;;;;5.13;2.33;;;;;;;10.24;96.21;100144.94;4992452;28;20403;-92
2023/01/06 00:35:38;;;;;;;6.93;2.13;;;;;;;10.23;96.17;100146.03;4974402;28;20032;-90
2023/01/06 00:38:04;;;;;;;8.43;3.35;;;;;;;10.14;96.33;100137.44;4992749;28;20053;-91
2023/01/06 00:40:29;;;;;;;5.72;2.30;;;;;;;10.06;96.77;100133.28;4992458;28;20042;-93
2023/01/06 00:42:54;;;;;;;7.57;3.45;;;;;;;10.07;96.94;100132.19;4992699;28;20097;-93
2023/01/06 00:45:20;;;;;;;7.27;2.50;;;;;;;10.14;96.92;100129.28;4975210;28;20034;-92
2023/01/06 00:47:45;;;;;;;4.35;1.90;;;;;;;10.06;96.52;100121.53;4991619;28;20886;-94
2023/01/06 00:50:10;;;;;;;6.70;1.80;;;;;;;10.06;97.11;100122.38;4992080;28;20656;-92
2023/01/06 00:52:36;;;;;;;4.70;1.95;;;;;;;10.18;97.10;100118.69;4992161;28;20023;-93
2023/01/06 00:55:01;;;;;;;6.00;2.47;;;;;;;10.07;96.62;100118.56;4991919;28;20042;-90
2023/01/06 00:57:27;;;;;;;6.15;2.60;;;;;;;10.04;96.67;100125.34;4991595;28;20268;-94
2023/01/06 00:59:52;;;;;;;5.03;2.35;;;;;;;10.07;96.59;100118.56;4991806;28;20472;-92
2023/01/06 01:02:17;;;;;;;4.82;2.20;;;;;;;9.96;96.50;100114.91;4991779;28;20038;-94
2023/01/06 01:04:42;;;;;;;4.57;1.77;;;;;;;10.07;96.88;100118.56;4991986;28;20618;-91
2023/01/06 01:07:09;;;;;;;5.13;2.30;;;;;;;10.11;96.82;100119.69;4991517;28;20031;-91
2023/01/06 01:09:34;;;;;;;4.45;1.98;;;;;;;10.07;96.10;100112.31;4991852;28;20276;-93
2023/01/06 01:12:10;;;;;;;4.13;1.77;;;;;;;10.07;96.42;100123.22;4992124;28;20479;-92
2023/01/06 01:14:41;;;;;;;6.43;1.67;;;;;;;10.03;95.95;100117.41;4992226;28;20038;-92
2023/01/06 01:17:08;;;;;;;6.10;1.52;;;;;;;9.97;96.28;100116.53;4991023;28;20407;-90
2023/01/06 01:19:34;;;;;;;3.00;1.08;;;;;;;10.01;95.73;100120.41;4991173;28;20030;-93
2023/01/06 01:22:00;;;;;;;3.42;1.27;;;;;;;10.02;95.85;100116.63;4990208;28;20129;-92
2023/01/06 01:24:25;;;;;;;3.42;1.38;;;;;;;10.01;94.72;100116.84;4991203;28;20203;-94
2023/01/06 01:26:50;;;;;;;5.60;1.77;;;;;;;10.03;95.21;100111.97;4990956;28;20058;-91
2023/01/06 01:29:17;;;;;;;4.38;1.38;;;;;;;10.03;94.53;100117.41;4991339;28;20042;-94
2023/01/06 01:31:44;;;;;;;2.70;1.20;;;;;;;9.99;94.22;100111.66;4992004;28;20038;-90
2023/01/06 01:34:11;;;;;;;3.80;0.95;;;;;;;9.94;94.48;100108.88;4991196;28;20358;-92
2023/01/06 01:36:40;;;;;;;3.67;2.15;;;;;;;9.92;93.64;100111.03;4990140;28;20034;-94
2023/01/06 01:39:05;;;;;;;5.20;1.88;;;;;;;9.99;93.89;100113.53;4990724;28;20037;-92
2023/01/06 01:41:30;;;;;;;2.80;1.10;;;;;;;9.97;93.52;100112.97;4990832;28;20022;-90
2023/01/06 01:44:40;;;;;;;3.33;1.23;;;;;;;10.00;93.10;100107.03;4990899;28;20077;-93
2023/01/06 01:47:05;;;;;;;3.45;1.88;;;;;;;9.97;93.03;100112.97;4989803;28;20492;-92
2023/01/06 01:49:35;;;;;;;17.33;2.25;;;;;;;10.06;93.36;100106.03;4990938;28;20077;-94
2023/01/06 01:52:01;;;;;;;2.53;0.73;;;;;;;10.04;93.08;100110.91;4990154;28;20081;-92
2023/01/06 01:54:31;;;;;;;5.32;1.15;;;;;;;9.98;92.60;100109.19;4990615;28;20847;-93
2023/01/06 01:57:16;;;;;;;3.47;0.90;;;;;;;10.05;92.46;100101.66;4990017;28;20049;-93
2023/01/06 01:59:44;;;;;;;2.67;1.10;;;;;;;10.00;91.79;100093.41;4989785;28;20034;-93
2023/01/06 02:02:10;;;;;;;4.35;0.95;;;;;;;10.07;92.00;100099.50;4990986;28;20092;-94
2023/01/06 02:04:40;;;;;;;3.70;1.42;;;;;;;9.97;91.23;100099.34;4989724;28;20039;-94
2023/01/06 02:07:06;;;;;;;2.70;0.70;;;;;;;9.96;91.79;100100.44;4989237;28;20027;-93
2023/01/06 02:10:04;;;;;;;5.65;1.42;;;;;;;9.95;91.07;100094.16;4989473;28;20038;-93
2023/01/06 02:12:30;;;;;;;4.30;0.98;;;;;;;9.90;91.33;100097.66;4989861;28;20495;-92
2023/01/06 02:14:55;;;;;;;6.55;1.20;;;;;;;9.87;91.47;100098.16;4991409;28;20093;-92
2023/01/06 02:17:32;;;;;;;3.17;1.33;;;;;;;9.90;91.57;100089.50;4988352;28;20030;-92
2023/01/06 02:20:16;;;;;;;3.40;1.48;;;;;;;9.94;91.57;100084.38;4990156;28;20295;-93
2023/01/06 02:22:53;;;;;;;5.22;1.20;;;;;;;9.91;90.99;100077.50;4989523;28;20026;-92
2023/01/06 02:25:33;;;;;;;5.80;1.20;;;;;;;9.90;90.86;100075.88;4989838;28;20396;-92
2023/01/06 02:28:01;;;;;;;3.55;1.33;;;;;;;9.90;90.43;100070.44;4990604;28;20126;-92
2023/01/06 02:30:44;;;;;;;3.35;1.45;;;;;;;9.90;90.49;100073.16;4990091;28;20035;-91
2023/01/06 02:33:19;;;;;;;2.53;0.82;;;;;;;9.94;90.32;100070.75;4992347;28;20031;-94
2023/01/06 02:36:14;;;;;;;4.10;1.08;;;;;;;9.98;90.32;100071.06;4993228;28;20034;-92
2023/01/06 02:38:42;;;;;;;;;;;;;;;9.95;89.92;100071.53;4985503;28;20270;-93
2023/01/06 02:41:28;;;;;;;6.03;1.85;;;;;;;9.92;90.30;100079.19;4993699;28;20399;-92
2023/01/06 02:44:07;;;;;;;4.10;1.02;;;;;;;9.99;89.72;100068.06;4993398;28;20038;-92
2023/01/06 02:46:41;;;;;;;4.32;1.25;;;;;;;10.03;89.59;100068.38;4993359;28;20109;-90
2023/01/06 02:49:24;;;;;;;8.63;2.33;;;;;;;10.03;88.74;100060.22;4988970;28;20038;-92
2023/01/06 02:51:58;;;;;;;2.67;0.75;;;;;;;10.03;88.50;100057.47;4993067;28;20066;-93
2023/01/06 02:54:35;;;;;;;4.00;1.50;;;;;;;9.98;88.80;100060.16;4993061;28;20038;-93
2023/01/06 02:57:40;;;;;;;3.50;0.98;;;;;;;9.96;88.63;100063.16;4990351;28;20486;-91
2023/01/06 03:00:16;;;;;;;6.75;2.08;;;;;;;9.99;88.60;100059.06;4922477;29;20056;-93
2023/01/06 03:02:46;;;;;;;4.88;1.08;;;;;;;9.94;87.85;100046.22;4983548;28;20433;-93
2023/01/06 03:05:14;;;;;;;3.85;1.45;;;;;;;10.01;88.18;100048.75;4988939;28;20053;-90
2023/01/06 03:07:41;;;;;;;5.50;1.25;;;;;;;10.03;88.03;100052.88;4992327;28;20030;-89
2023/01/06 03:10:08;;;;;;;4.88;1.05;;;;;;;10.03;87.80;100038.41;4988705;28;20096;-92
2023/01/06 03:12:59;;;;;;;2.80;1.02;;;;;;;10.04;88.06;100040.09;4990591;28;20034;-92
2023/01/06 03:15:24;;;;;;;4.15;1.13;;;;;;;9.99;87.60;100035.38;4990357;28;20097;-89
2023/01/06 03:17:51;;;;;;;5.93;1.45;;;;;;;9.90;87.63;100026.84;4990893;28;20034;-93
2023/01/06 03:20:17;;;;;;;4.63;1.20;;;;;;;9.88;87.73;100018.13;4989967;28;20031;-90
2023/01/06 03:22:42;;;;;;;2.50;0.70;;;;;;;9.90;87.15;100021.41;4989455;28;20034;-92
2023/01/06 03:25:08;;;;;;;5.47;1.27;;;;;;;9.96;87.12;100024.19;4990098;28;20518;-93
2023/01/06 03:27:34;;;;;;;3.95;1.13;;;;;;;9.89;87.19;100027.91;4989448;28;20030;-92
2023/01/06 03:30:01;;;;;;;4.10;0.90;;;;;;;9.85;86.88;100024.06;4989817;28;20110;-92
2023/01/06 03:32:35;;;;;;;6.50;1.50;;;;;;;9.89;86.82;100030.66;4989919;28;20040;-91
2023/01/06 03:35:09;;;;;;;;;;;;;;;9.91;86.44;100023.03;4990055;28;20502;-91
2023/01/06 03:38:10;;;;;;;1.65;1.02;;;;;;;9.92;86.12;100027.44;4989339;28;19917;-92
2023/01/06 03:41:16;;;;;;;7.38;1.45;;;;;;;9.93;85.92;100022.78;4979037;28;20050;-94
2023/01/06 03:44:12;;;;;;;3.78;1.08;;;;;;;9.88;85.14;100012.66;4980481;28;20042;-92
2023/01/06 03:46:40;;;;;;;4.90;0.80;;;;;;;9.90;85.01;100024.13;4989758;28;20038;-93
2023/01/06 03:49:21;;;;;;;4.32;1.10;;;;;;;9.93;85.10;100020.06;4990531;28;20030;-92
2023/01/06 03:51:59;;;;;;;13.95;1.00;;;;;;;9.95;84.02;100019.78;4990090;28;20035;-95
2023/01/06 03:54:34;;;;;;;3.25;0.82;;;;;;;10.03;84.05;100024.78;4989902;28;20117;-93
2023/01/06 03:57:20;;;;;;;6.57;0.98;;;;;;;9.91;83.71;100016.75;4989721;28;20121;-93
2023/01/06 03:59:52;;;;;;;3.38;1.10;;;;;;;9.85;83.36;100010.44;4989607;28;20035;-93
2023/01/06 04:02:21;;;;;;;5.80;0.77;;;;;;;9.89;83.17;100008.84;4989692;28;20038;-93
2023/01/06 04:05:01;;;;;;;2.28;0.60;;;;;;;9.94;83.37;100002.66;4990176;28;20038;-94
2023/01/06 04:07:26;;;;;;;2.35;0.90;;;;;;;9.88;82.95;100006.41;4989106;28;20034;-94
2023/01/06 04:09:51;;;;;;;3.97;0.83;;;;;;;9.90;82.94;100018.69;4989847;28;20038;-93
2023/01/06 04:15:00;;;;;;;4.72;0.90;;;;;;;9.95;83.02;100011.63;4989926;28;20251;-93
2023/01/06 04:17:25;;;;;;;2.28;0.70;;;;;;;9.99;82.89;100001.88;4988728;28;20034;-91
2023/01/06 04:19:51;;;;;;;2.40;0.83;;;;;;;9.92;83.10;100002.09;4989276;28;20037;-91
2023/01/06 04:22:16;;;;;;;3.20;0.93;;;;;;;9.90;83.16;99994.19;4989711;28;20595;-92
2023/01/06 04:24:41;;;;;;;6.93;0.98;;;;;;;9.93;83.27;99988.22;4989628;28;20347;-94
2023/01/06 04:27:06;;;;;;;2.57;0.90;;;;;;;9.88;83.58;99980.00;4988615;28;20169;-93
2023/01/06 04:29:32;;;;;;;2.63;0.70;;;;;;;9.88;83.79;99979.16;4989506;28;20264;-92
2023/01/06 04:31:57;;;;;;;6.13;1.10;;;;;;;9.91;83.79;99979.47;4972059;28;20777;-92
2023/01/06 04:34:22;;;;;;;3.77;0.80;;;;;;;9.79;83.83;99971.44;4989255;28;20033;-91
2023/01/06 04:36:47;;;;;;;4.45;0.95;;;;;;;9.78;84.17;99969.78;4989049;28;20737;-90
2023/01/06 04:39:13;;;;;;;2.50;0.80;;;;;;;9.88;84.09;99973.72;4989105;28;20034;-90
2023/01/06 04:41:38;;;;;;;1.83;0.77;;;;;;;9.84;84.46;99962.50;4991180;28;20759;-92
2023/01/06 04:44:03;;;;;;;3.60;0.77;;;;;;;9.86;84.23;99960.34;4992784;28;20038;-92
2023/01/06 04:46:29;;;;;;;4.03;1.33;;;;;;;9.89;84.58;99954.38;4992208;28;20264;-92
2023/01/06 04:48:54;;;;;;;2.83;0.67;;;;;;;9.88;84.31;99969.09;4992800;28;20068;-93
2023/01/06 04:51:19;;;;;;;3.07;1.07;;;;;;;9.88;84.62;99957.38;4992600;28;20256;-91
2023/01/06 04:53:44;;;;;;;1.73;0.73;;;;;;;9.89;84.54;99959.00;4993599;28;20255;-91
2023/01/06 04:56:11;;;;;;;4.47;1.43;;;;;;;9.87;84.94;99950.25;4974774;28;20330;-90
2023/01/06 04:58:37;;;;;;;3.42;0.80;;;;;;;9.91;84.60;99941.34;4992687;28;20852;-93
2023/01/06 05:01:06;;;;;;;5.85;0.95;;;;;;;9.89;84.86;99929.88;4992727;28;20545;-91
2023/01/06 05:03:33;;;;;;;2.15;0.68;;;;;;;9.83;84.53;99938.22;4992645;28;20037;-92
2023/01/06 05:06:04;;;;;;;4.88;1.67;;;;;;;9.74;84.90;99946.06;4992182;28;20057;-91
2023/01/06 05:08:30;;;;;;;6.68;1.20;;;;;;;9.78;85.04;99934.38;4992254;28;20052;-93
2023/01/06 05:11:00;;;;;;;6.43;1.20;;;;;;;9.79;84.86;99937.94;4991613;28;20035;-92
2023/01/06 05:13:27;;;;;;;4.88;0.82;;;;;;;9.75;84.88;99943.06;4991802;28;20382;-93
2023/01/06 05:15:52;;;;;;;2.47;0.80;;;;;;;9.72;84.94;99937.31;4991846;28;20026;-91
2023/01/06 05:18:17;;;;;;;3.20;1.03;;;;;;;9.78;84.87;99937.09;4992457;28;20468;-93
2023/01/06 05:20:42;;;;;;;9.25;0.98;;;;;;;9.74;84.87;99940.59;4992533;28;20294;-91
2023/01/06 05:23:08;;;;;;;4.82;1.00;;;;;;;9.79;85.25;99930.59;4992835;28;20030;-92
2023/01/06 05:25:33;;;;;;;7.87;1.27;;;;;;;9.78;85.04;99923.50;4990883;28;20045;-92
2023/01/06 05:27:58;;;;;;;5.53;1.50;;;;;;;9.77;85.15;99931.91;4992353;28;20267;-93
2023/01/06 05:30:23;;;;;;;2.77;1.63;;;;;;;9.67;85.15;99930.75;4992567;28;20768;-94
2023/01/06 05:32:49;;;;;;;3.50;0.60;;;;;;;9.71;85.36;99925.59;4992387;28;20256;-91
2023/01/06 05:35:14;;;;;;;3.50;0.93;;;;;;;9.76;84.97;99931.09;4991788;28;20274;-93
2023/01/06 05:37:39;;;;;;;3.67;1.20;;;;;;;9.80;84.98;99931.41;4991433;28;20256;-89
2023/01/06 05:40:05;;;;;;;1.83;0.60;;;;;;;9.76;84.48;99936.53;4991791;28;20359;-93
2023/01/06 05:42:30;;;;;;;2.67;0.77;;;;;;;9.79;84.31;99932.50;4991993;28;20260;-93
2023/01/06 05:44:56;;;;;;;0.93;0.50;;;;;;;9.72;84.87;99938.16;4992400;28;20042;-90
2023/01/06 05:47:21;;;;;;;1.77;0.80;;;;;;;9.72;84.35;99931.88;4991477;28;20315;-91
2023/01/06 05:49:46;;;;;;;0.87;0.57;;;;;;;9.83;84.26;99939.06;4991456;28;20136;-94
2023/01/06 05:52:11;;;;;;;4.83;0.77;;;;;;;9.80;84.52;99945.84;4990667;28;20256;-93
2023/01/06 05:54:37;;;;;;;6.57;0.50;;;;;;;9.86;83.92;99941.28;4991046;28;20793;-94
2023/01/06 05:57:03;;;;;;;2.67;0.77;;;;;;;9.89;84.45;99938.03;4990596;28;20268;-93
2023/01/06 05:59:28;;;;;;;2.90;0.67;;;;;;;9.97;83.75;99935.94;4992117;28;20026;-92
2023/01/06 06:01:53;;;;;;;6.77;1.17;;;;;;;9.88;83.78;99928.25;4990959;28;20347;-91
2023/01/06 06:04:18;;;;;;;2.30;1.00;;;;;;;9.88;84.08;99939.13;4990545;28;20272;-94
2023/01/06 06:06:43;;;;;;;1.80;0.40;;;;;;;9.80;84.02;99928.69;4990098;28;20272;-92
2023/01/06 06:09:09;;;;;;;4.33;0.90;;;;;;;9.83;84.52;99932.78;4990657;28;20765;-93
2023/01/06 06:11:34;;;;;;;2.58;0.75;;;;;;;9.77;84.77;99931.91;4991333;28;20278;-93
2023/01/06 06:14:00;;;;;;;2.20;0.77;;;;;;;9.83;84.18;99933.63;4991389;28;20038;-91
2023/01/06 06:16:27;;;;;;;5.63;0.88;;;;;;;9.88;84.11;99930.97;4990677;28;20118;-93
2023/01/06 06:18:54;;;;;;;3.25;0.90;;;;;;;9.89;83.86;99932.59;4991177;28;20066;-94
2023/01/06 06:21:22;;;;;;;3.72;0.50;;;;;;;9.86;84.15;99938.56;4990135;28;20109;-93
2023/01/06 06:23:48;;;;;;;1.50;0.70;;;;;;;9.87;83.69;99940.19;4990764;28;20042;-93
2023/01/06 06:26:14;;;;;;;2.63;0.57;;;;;;;9.81;83.32;99930.34;4990415;28;20450;-92
2023/01/06 06:28:39;;;;;;;3.88;0.65;;;;;;;9.86;84.04;99935.84;4989992;28;20026;-91
2023/01/06 06:31:06;;;;;;;4.75;1.73;;;;;;;9.85;83.89;99919.75;4973982;28;20173;-91
2023/01/06 06:33:32;;;;;;;2.45;0.73;;;;;;;9.79;84.18;99927.03;4989995;28;20096;-94
2023/01/06 06:35:58;;;;;;;3.13;0.70;;;;;;;9.72;84.10;99926.44;4990731;28;20492;-92
2023/01/06 06:38:23;;;;;;;1.10;0.57;;;;;;;9.79;83.94;99935.22;4991228;28;20030;-92
2023/01/06 06:40:49;;;;;;;3.10;0.70;;;;;;;9.69;84.31;99933.19;4989802;28;20046;-92
2023/01/06 06:43:14;;;;;;;5.88;0.52;;;;;;;9.82;84.26;99937.44;4990146;28;20038;-92
2023/01/06 06:45:39;;;;;;;3.67;0.90;;;;;;;9.77;84.30;99929.19;4990031;28;20029;-91
2023/01/06 06:48:05;;;;;;;1.27;0.60;;;;;;;9.75;84.56;99931.34;4990862;28;20128;-90
2023/01/06 06:50:30;;;;;;;1.25;0.73;;;;;;;9.71;84.58;99920.16;4990286;28;20670;-93
2023/01/06 06:52:55;;;;;;;6.25;0.75;;;;;;;9.69;84.93;99912.25;4990446;28;20031;-93
2023/01/06 06:55:21;;;;;;;1.40;0.40;;;;;;;9.72;85.12;99915.53;4990458;28;20341;-90
2023/01/06 06:57:46;;;;;;;2.70;0.80;;;;;;;9.65;85.27;99919.28;4990058;28;20264;-92
2023/01/06 07:00:12;;;;;;;2.00;0.67;;;;;;;9.65;85.16;99915.72;4990889;28;20629;-91
2023/01/06 07:02:37;;;;;;;2.70;0.60;;;;;;;9.67;85.98;99917.13;4990522;28;20248;-91
2023/01/06 07:05:03;;;;;;;1.07;0.40;;;;;;;9.68;85.62;99921.47;4989417;28;20046;-91
2023/01/06 07:07:28;;;;;;;3.33;0.43;;;;;;;9.70;86.09;99902.19;4988598;28;20294;-93
2023/01/06 07:09:53;;;;;;;5.57;0.77;;;;;;;9.76;86.09;99922.13;4990165;28;20096;-92
2023/01/06 07:12:19;;;;;;;1.50;0.40;;;;;;;9.80;85.81;99906.91;4990149;28;20030;-93
2023/01/06 07:14:44;;;;;;;2.30;0.50;;;;;;;9.67;85.68;99908.97;4989891;28;20661;-95
2023/01/06 07:17:09;;;;;;;3.07;0.40;;;;;;;9.67;85.73;99899.97;4989586;28;20256;-93
2023/01/06 07:19:34;;;;;;;4.87;1.23;;;;;;;9.57;86.44;99903.38;4990523;28;20322;-93
2023/01/06 07:22:00;;;;;;;4.27;0.50;;;;;;;9.67;86.27;99913.56;4990627;28;20265;-93
2023/01/06 07:24:25;;;;;;;2.60;0.77;;;;;;;9.78;85.75;99917.25;4990110;28;20268;-92
2023/01/06 07:26:50;;;;;;;2.10;0.40;;;;;;;9.74;85.99;99891.59;4989142;28;20271;-91
2023/01/06 07:29:15;;;;;;;2.17;0.57;;;;;;;9.64;86.17;99903.22;4989694;28;20270;-93
2023/01/06 07:31:40;;;;;;;0.80;0.30;;;;;;;9.60;86.39;99900.16;4989764;28;20308;-92
2023/01/06 07:34:06;;;;;;;0.80;0.30;;;;;;;9.60;86.11;99902.88;4990438;28;20260;-95
2023/01/06 07:36:31;;;;;;;3.43;0.40;;;;;;;9.59;86.00;99890.34;4989549;28;20370;-92
2023/01/06 07:38:56;;;;;;;4.03;1.03;;;;;;;9.58;86.34;99892.25;4990189;28;20260;-92
2023/01/06 07:41:21;;;;;;;2.87;1.13;;;;;;;9.69;85.98;99906.81;4989172;28;20284;-94
2023/01/06 07:43:47;;;;;;;1.80;0.60;;;;;;;9.76;85.90;99906.59;4990144;28;20287;-95
2023/01/06 07:46:12;;;;;;;2.27;0.50;;;;;;;9.69;85.24;99901.34;4988898;28;20365;-90
2023/01/06 07:48:37;;;;;;;3.13;1.03;;;;;;;9.68;85.63;99921.47;4989405;28;20563;-91
2023/01/06 07:51:03;;;;;;;1.40;0.80;;;;;;;9.65;85.55;99894.78;4989887;28;20307;-91
2023/01/06 07:53:28;;;;;;;2.17;1.05;;;;;;;9.68;85.53;99916.03;4990171;28;20038;-94
2023/01/06 07:55:54;;;;;;;1.95;0.60;;;;;;;9.80;85.75;99915.09;4989427;28;20527;-92
2023/01/06 07:58:20;;;;;;;1.73;0.32;;;;;;;9.82;85.11;99915.66;4989832;28;20042;-93
2023/01/06 08:00:45;;;;;;;1.55;0.68;;;;;;;9.78;85.50;99919.97;4989776;28;20054;-94
2023/01/06 08:03:10;;;;;;;1.60;0.85;;;;;;;9.79;84.87;99927.03;4989976;28;20085;-92
2023/01/06 08:05:37;;;;;;;1.15;0.45;;;;;;;9.81;85.21;99916.72;4989226;28;20030;-94
2023/01/06 08:08:03;;;;;;;3.00;0.68;;;;;;;9.85;85.29;99914.28;4989783;28;20408;-92
2023/01/06 08:10:29;;;;;;;2.35;0.98;;;;;;;9.77;85.45;99918.31;4989550;28;20064;-95
2023/01/06 08:12:54;;;;;;;2.05;0.82;;;;;;;9.83;85.31;99922.72;4989340;28;20307;-93
2023/01/06 08:15:19;;;;;;;2.40;0.90;;;;;;;9.79;85.45;99921.59;4989984;28;20090;-90
2023/01/06 08:17:45;;;;;;;2.63;0.93;;;;;;;9.81;85.40;99923.00;4993361;28;20030;-93
2023/01/06 08:20:10;;;;;;;3.03;0.40;;;;;;;9.93;85.32;99925.56;4994294;28;20259;-92
2023/01/06 08:22:35;;;;;;;2.25;0.65;;;;;;;9.80;84.97;99917.81;4994121;28;20307;-94
2023/01/06 08:25:00;;;;;;;2.83;0.80;;;;;;;9.81;84.78;99917.53;4993453;28;20068;-93
2023/01/06 08:27:26;;;;;;;2.83;0.77;;;;;;;9.87;85.14;99918.41;4992604;28;20038;-94
2023/01/06 08:29:53;;;;;;;5.25;1.15;;;;;;;9.80;85.91;99906.91;4993619;28;20030;-92
2023/01/06 08:32:18;;;;;;;0.98;0.43;;;;;;;9.80;85.92;99915.09;4992937;28;20113;-96
2023/01/06 08:34:44;;;;;;;2.70;0.65;;;;;;;9.95;85.82;99929.91;4992857;28;20181;-91
2023/01/06 08:37:09;;;;;;;4.40;1.30;;;;;;;9.92;85.81;99928.56;4990899;28;20034;-93
2023/01/06 08:39:34;;;;;;;5.00;0.57;;;;;;;9.92;85.81;99923.94;4992740;28;20367;-93
2023/01/06 08:42:00;;;;;;;3.65;0.65;;;;;;;9.80;87.00;99931.41;4992886;28;20033;-94
2023/01/06 08:44:25;;;;;;;1.95;0.70;;;;;;;9.84;86.96;99946.19;4992841;28;20030;-92
2023/01/06 08:46:50;;;;;;;1.40;0.83;;;;;;;9.92;87.10;99953.91;4992610;28;20136;-91
2023/01/06 08:49:15;;;;;;;0.87;0.70;;;;;;;9.96;87.36;99947.91;4992842;28;20267;-91
2023/01/06 08:51:41;;;;;;;1.10;0.40;;;;;;;9.95;87.99;99952.53;4992866;28;20266;-92
2023/01/06 08:54:06;;;;;;;2.20;0.77;;;;;;;10.03;87.51;99970.31;4975340;28;20042;-91
2023/01/06 08:56:31;;;;;;;2.80;0.60;;;;;;;9.98;87.59;99965.66;4991973;28;20049;-92
2023/01/06 08:58:59;;;;;;;2.65;0.93;;;;;;;9.96;87.55;99981.44;4992971;28;20374;-91
2023/01/06 09:01:30;;;;;;;2.97;1.30;;;;;;;9.91;88.21;99978.63;4992727;28;20038;-88
2023/01/06 09:03:57;;;;;;;5.90;0.63;;;;;;;9.92;87.90;99978.41;4992655;28;20030;-92
2023/01/06 09:06:23;;;;;;;2.25;0.68;;;;;;;9.90;88.51;99977.84;4991733;28;20434;-89
2023/01/06 09:08:49;;;;;;;1.85;0.63;;;;;;;9.87;88.65;99978.31;4992933;28;20038;-93
2023/01/06 09:11:16;;;;;;;1.25;0.82;;;;;;;9.79;89.07;99965.16;4991977;28;20041;-91
2023/01/06 09:13:41;;;;;;;1.00;0.60;;;;;;;9.90;89.00;99964.22;4992347;28;20030;-93
2023/01/06 09:16:08;;;;;;;1.63;0.80;;;;;;;9.96;88.64;99975.16;4991603;28;20042;-92
2023/01/06 09:18:33;;;;;;;1.85;0.55;;;;;;;9.88;88.37;99957.38;4992496;28;20050;-90
2023/01/06 09:20:59;;;;;;;1.75;0.98;;;;;;;9.92;88.69;99958.50;4992488;28;20022;-94
2023/01/06 09:23:25;;;;;;;6.32;0.60;;;;;;;9.91;88.32;99979.47;4992328;28;20070;-93
2023/01/06 09:25:50;;;;;;;1.75;0.90;;;;;;;9.97;88.52;99965.88;4991625;28;20038;-89
2023/01/06 09:28:16;;;;;;;9.32;0.73;;;;;;;9.89;89.27;99970.72;4991985;28;20026;-92
2023/01/06 09:30:41;;;;;;;0.75;0.52;;;;;;;9.88;90.08;99977.25;4992738;28;20452;-91
2023/01/06 09:33:06;;;;;;;1.38;0.70;;;;;;;9.92;89.74;99963.97;4992286;28;20042;-94
2023/01/06 09:35:32;;;;;;;1.60;0.60;;;;;;;9.93;90.52;99985.47;4992103;28;20064;-92
2023/01/06 09:37:58;;;;;;;1.40;0.60;;;;;;;10.04;90.99;99993.78;4991885;28;20065;-91
2023/01/06 09:40:30;;;;;;;2.38;0.77;;;;;;;10.03;91.34;100003.00;4991520;28;20148;-95
2023/01/06 09:43:13;;;;;;;3.05;1.25;;;;;;;10.01;91.82;100005.16;4991558;28;20058;-93
2023/01/06 09:45:49;;;;;;;1.05;0.60;;;;;;;10.02;92.23;100013.09;4990587;28;20069;-93
2023/01/06 09:48:20;;;;;;;1.38;0.80;;;;;;;10.02;92.61;100018.53;4991714;28;20034;-91
2023/01/06 09:50:50;;;;;;;1.50;0.93;;;;;;;10.14;92.77;100017.56;4973670;28;20034;-89
2023/01/06 09:53:21;;;;;;;1.90;0.75;;;;;;;10.22;92.35;100021.75;4990556;28;20041;-88
2023/01/06 09:55:56;;;;;;;1.98;0.85;;;;;;;10.24;92.33;100020.41;4990233;28;20046;-90
2023/01/06 09:58:25;;;;;;;1.45;0.57;;;;;;;10.20;92.60;100018.44;4991038;28;20077;-90
2023/01/06 10:00:53;;;;;;;0.77;0.50;;;;;;;10.27;93.16;100022.63;4990951;28;20034;-91
2023/01/06 10:03:27;;;;;;;1.35;0.60;;;;;;;10.19;93.49;100020.34;4990997;28;20501;-89
2023/01/06 10:06:14;;;;;;;2.42;0.90;;;;;;;10.07;94.57;100019.69;4990523;28;20078;-90
2023/01/06 10:09:01;;;;;;;1.48;0.82;;;;;;;10.07;94.68;100020.50;4989507;28;20060;-92
2023/01/06 10:11:44;;;;;;;1.67;0.60;;;;;;;10.07;94.95;100011.50;4989705;28;20435;-91
2023/01/06 10:14:21;;;;;;;2.97;1.48;;;;;;;10.22;94.60;100010.84;4989541;28;20062;-88
2023/01/06 10:17:05;;;;;;;1.20;0.90;;;;;;;10.08;94.40;100010.41;4990414;28;20084;-91
2023/01/06 10:20:00;;;;;;;6.50;1.25;;;;;;;10.05;95.62;100019.91;4973535;28;20088;-85
2023/01/06 10:22:38;;;;;;;2.72;0.85;;;;;;;10.07;95.44;100019.69;4990598;28;20022;-88
2023/01/06 10:25:18;;;;;;;1.85;1.00;;;;;;;10.11;95.53;100018.09;4990818;28;20301;-90
2023/01/06 10:28:00;;;;;;;1.83;0.80;;;;;;;10.21;95.49;100026.38;4989896;28;20117;-88
2023/01/06 10:30:32;;;;;;;3.20;0.60;;;;;;;10.24;94.71;100036.75;4990381;28;20034;-87
2023/01/06 10:32:57;;;;;;;1.75;0.57;;;;;;;10.26;94.89;100036.50;4990195;28;20117;-93
2023/01/06 10:35:26;;;;;;;1.90;0.70;;;;;;;10.27;94.83;100032.72;4991214;28;20472;-92
2023/01/06 10:37:52;;;;;;;2.67;0.73;;;;;;;10.20;94.73;100024.72;4990647;28;20113;-87
2023/01/06 10:40:21;;;;;;;2.92;0.60;;;;;;;10.23;94.95;100023.41;4989814;28;20058;-93
2023/01/06 10:42:54;;;;;;;0.85;0.40;;;;;;;10.22;94.95;100028.03;4989801;28;20042;-94
2023/01/06 10:45:22;;;;;;;0.87;0.50;;;;;;;10.18;94.77;100028.78;4990101;28;20129;-93
2023/01/06 10:47:48;;;;;;;2.70;0.70;;;;;;;10.14;95.35;100028.47;4990073;28;20693;-94
2023/01/06 10:50:16;;;;;;;1.02;0.52;;;;;;;10.18;95.02;100020.59;4990180;28;20038;-93
2023/01/06 10:52:42;;;;;;;2.15;0.65;;;;;;;10.28;94.74;100026.16;4988447;28;20045;-90
2023/01/06 10:55:35;;;;;;;1.25;0.57;;;;;;;10.34;94.07;100018.88;4990302;28;20046;-93
2023/01/06 10:58:16;;;;;;;3.28;0.60;;;;;;;10.44;93.88;100031.78;4973098;28;20038;-92
2023/01/06 11:01:04;;;;;;;1.38;0.73;;;;;;;10.45;93.46;100009.72;4981858;28;20100;-92
2023/01/06 11:03:30;;;;;;;1.05;0.50;;;;;;;10.53;93.02;100024.00;4988420;28;20034;-91
2023/01/06 11:06:16;;;;;;;0.67;0.30;;;;;;;10.44;92.51;100024.41;4990245;28;20044;-92
2023/01/06 11:08:41;;;;;;;1.95;0.60;;;;;;;10.35;92.74;100026.78;4989168;28;20323;-92
2023/01/06 11:11:13;;;;;;;1.23;0.70;;;;;;;10.36;92.29;100039.34;4971936;28;20585;-93
2023/01/06 11:13:40;;;;;;;3.65;1.05;;;;;;;10.41;92.35;100043.19;4989499;28;20022;-95
2023/01/06 11:16:17;;;;;;;2.35;1.00;;;;;;;10.46;92.05;100030.44;4989891;28;20030;-91
2023/01/06 11:18:42;;;;;;;2.05;0.95;;;;;;;10.35;92.23;100037.69;4989905;28;20479;-89
2023/01/06 11:21:17;;;;;;;3.08;1.33;;;;;;;10.35;92.18;100032.22;4990358;28;20077;-93
2023/01/06 11:23:45;;;;;;;1.65;1.13;;;;;;;10.41;92.08;100043.19;4990448;28;20038;-91
2023/01/06 11:26:10;;;;;;;4.43;1.02;;;;;;;10.36;91.75;100033.88;4989012;28;20047;-90
2023/01/06 11:28:36;;;;;;;9.90;1.53;;;;;;;10.34;92.20;100025.16;4989065;28;20081;-94
2023/01/06 11:31:13;;;;;;;3.47;1.48;;;;;;;10.41;91.54;100035.03;4973222;28;20053;-92
2023/01/06 11:34:00;;;;;;;6.55;1.80;;;;;;;10.38;92.00;100037.19;4990287;28;20714;-88
2023/01/06 11:36:30;;;;;;;3.85;1.08;;;;;;;10.37;92.05;100035.53;4989622;28;20038;-89
2023/01/06 11:39:11;;;;;;;1.50;0.98;;;;;;;10.55;91.61;100040.91;4990324;28;20121;-87
2023/01/06 11:41:39;;;;;;;2.47;1.00;;;;;;;10.57;91.10;100036.84;4989831;28;20511;-89
2023/01/06 11:44:29;;;;;;;3.40;1.60;;;;;;;10.62;90.88;100036.06;4990632;28;20038;-89
2023/01/06 11:46:59;;;;;;;2.58;1.15;;;;;;;10.61;91.26;100039.88;4989767;28;20213;-86